sensor_id;sensor_type;location;lat;lon;timestamp;P1;durP1;ratioP1;P2;durP2;ratioP2
11582;SDS011;34299;50.820;4.548;2023-05-18T00:01:05;10.73;;;3.40;;
11582;SDS011;34299;50.820;4.548;2023-05-18T00:03:32;3.87;;;2.37;;
11582;SDS011;34299;50.820;4.548;2023-05-18T00:06:00;6.73;;;2.43;;
11582;SDS011;34299;50.820;4.548;2023-05-18T00:08:28;9.13;;;3.10;;
11582;SDS011;34299;50.820;4.548;2023-05-18T00:10:56;7.50;;;3.53;;
11582;SDS011;34299;50.820;4.548;2023-05-18T00:13:24;6.43;;;3.03;;
11582;SDS011;34299;50.820;4.548;2023-05-18T00:15:52;5.90;;;2.87;;
11582;SDS011;34299;50.820;4.548;2023-05-18T00:18:19;6.37;;;2.47;;
11582;SDS011;34299;50.820;4.548;2023-05-18T00:20:48;3.57;;;2.00;;
11582;SDS011;34299;50.820;4.548;2023-05-18T00:23:15;5.07;;;2.40;;
11582;SDS011;34299;50.820;4.548;2023-05-18T00:25:42;5.17;;;1.77;;
11582;SDS011;34299;50.820;4.548;2023-05-18T00:28:09;6.63;;;2.17;;
11582;SDS011;34299;50.820;4.548;2023-05-18T00:30:38;3.60;;;2.00;;
11582;SDS011;34299;50.820;4.548;2023-05-18T00:33:05;5.83;;;3.17;;
11582;SDS011;34299;50.820;4.548;2023-05-18T00:35:32;7.73;;;2.53;;
11582;SDS011;34299;50.820;4.548;2023-05-18T00:37:59;3.67;;;1.83;;
11582;SDS011;34299;50.820;4.548;2023-05-18T00:40:28;3.17;;;2.30;;
11582;SDS011;34299;50.820;4.548;2023-05-18T00:42:56;5.83;;;2.30;;
11582;SDS011;34299;50.820;4.548;2023-05-18T00:45:24;5.37;;;2.40;;
11582;SDS011;34299;50.820;4.548;2023-05-18T00:47:53;2.73;;;1.97;;
11582;SDS011;34299;50.820;4.548;2023-05-18T00:50:20;8.17;;;2.40;;
11582;SDS011;34299;50.820;4.548;2023-05-18T00:52:48;5.23;;;2.70;;
11582;SDS011;34299;50.820;4.548;2023-05-18T00:55:16;5.53;;;2.40;;
11582;SDS011;34299;50.820;4.548;2023-05-18T00:57:43;9.30;;;2.50;;
11582;SDS011;34299;50.820;4.548;2023-05-18T01:00:12;6.87;;;2.07;;
11582;SDS011;34299;50.820;4.548;2023-05-18T01:02:40;4.53;;;1.77;;
11582;SDS011;34299;50.820;4.548;2023-05-18T01:05:11;9.00;;;2.00;;
11582;SDS011;34299;50.820;4.548;2023-05-18T01:07:39;5.40;;;2.53;;
11582;SDS011;34299;50.820;4.548;2023-05-18T01:10:07;6.23;;;2.43;;
11582;SDS011;34299;50.820;4.548;2023-05-18T01:12:36;5.53;;;2.30;;
11582;SDS011;34299;50.820;4.548;2023-05-18T01:15:06;4.57;;;2.43;;
11582;SDS011;34299;50.820;4.548;2023-05-18T01:17:35;8.83;;;2.17;;
11582;SDS011;34299;50.820;4.548;2023-05-18T01:20:14;4.17;;;1.70;;
11582;SDS011;34299;50.820;4.548;2023-05-18T01:22:48;3.70;;;2.37;;
11582;SDS011;34299;50.820;4.548;2023-05-18T01:25:17;3.53;;;1.90;;
11582;SDS011;34299;50.820;4.548;2023-05-18T01:27:49;6.47;;;1.73;;
11582;SDS011;34299;50.820;4.548;2023-05-18T01:30:17;3.27;;;2.40;;
11582;SDS011;34299;50.820;4.548;2023-05-18T01:32:44;5.17;;;1.93;;
11582;SDS011;34299;50.820;4.548;2023-05-18T01:35:12;8.33;;;3.53;;
11582;SDS011;34299;50.820;4.548;2023-05-18T01:37:39;3.60;;;2.57;;
11582;SDS011;34299;50.820;4.548;2023-05-18T01:40:07;4.73;;;2.23;;
11582;SDS011;34299;50.820;4.548;2023-05-18T01:42:36;3.63;;;2.13;;
11582;SDS011;34299;50.820;4.548;2023-05-18T01:45:08;4.20;;;2.17;;
11582;SDS011;34299;50.820;4.548;2023-05-18T01:47:36;4.97;;;1.77;;
11582;SDS011;34299;50.820;4.548;2023-05-18T01:50:07;3.27;;;2.03;;
11582;SDS011;34299;50.820;4.548;2023-05-18T01:52:36;4.67;;;2.03;;
11582;SDS011;34299;50.820;4.548;2023-05-18T01:55:04;3.10;;;2.07;;
11582;SDS011;34299;50.820;4.548;2023-05-18T01:57:32;4.70;;;2.20;;
11582;SDS011;34299;50.820;4.548;2023-05-18T02:00:01;3.77;;;2.37;;
11582;SDS011;34299;50.820;4.548;2023-05-18T02:02:33;4.47;;;2.00;;
11582;SDS011;34299;50.820;4.548;2023-05-18T02:05:00;4.63;;;2.37;;
11582;SDS011;34299;50.820;4.548;2023-05-18T02:07:29;7.33;;;2.83;;
11582;SDS011;34299;50.820;4.548;2023-05-18T02:09:56;3.33;;;1.83;;
11582;SDS011;34299;50.820;4.548;2023-05-18T02:12:24;4.20;;;1.87;;
11582;SDS011;34299;50.820;4.548;2023-05-18T02:14:51;5.97;;;2.40;;
11582;SDS011;34299;50.820;4.548;2023-05-18T02:17:19;3.77;;;2.07;;
11582;SDS011;34299;50.820;4.548;2023-05-18T02:19:51;2.63;;;1.90;;
11582;SDS011;34299;50.820;4.548;2023-05-18T02:22:20;8.93;;;2.63;;
11582;SDS011;34299;50.820;4.548;2023-05-18T02:24:47;11.87;;;1.73;;
11582;SDS011;34299;50.820;4.548;2023-05-18T02:27:15;5.10;;;2.33;;
11582;SDS011;34299;50.820;4.548;2023-05-18T02:29:42;2.37;;;1.93;;
11582;SDS011;34299;50.820;4.548;2023-05-18T02:32:10;1.90;;;1.77;;
11582;SDS011;34299;50.820;4.548;2023-05-18T02:34:37;5.37;;;2.30;;
11582;SDS011;34299;50.820;4.548;2023-05-18T02:37:07;3.93;;;2.00;;
11582;SDS011;34299;50.820;4.548;2023-05-18T02:39:34;4.20;;;2.20;;
11582;SDS011;34299;50.820;4.548;2023-05-18T02:42:02;6.20;;;2.27;;
11582;SDS011;34299;50.820;4.548;2023-05-18T02:44:29;4.90;;;2.33;;
11582;SDS011;34299;50.820;4.548;2023-05-18T02:46:56;3.20;;;1.90;;
11582;SDS011;34299;50.820;4.548;2023-05-18T02:49:23;5.87;;;2.63;;
11582;SDS011;34299;50.820;4.548;2023-05-18T02:51:50;3.87;;;2.10;;
11582;SDS011;34299;50.820;4.548;2023-05-18T02:54:19;7.50;;;2.73;;
11582;SDS011;34299;50.820;4.548;2023-05-18T02:56:46;4.13;;;2.20;;
11582;SDS011;34299;50.820;4.548;2023-05-18T02:59:13;5.47;;;2.57;;
11582;SDS011;34299;50.820;4.548;2023-05-18T03:01:40;3.13;;;2.10;;
11582;SDS011;34299;50.820;4.548;2023-05-18T03:04:08;4.13;;;2.00;;
11582;SDS011;34299;50.820;4.548;2023-05-18T03:06:35;4.47;;;2.00;;
11582;SDS011;34299;50.820;4.548;2023-05-18T03:09:02;7.97;;;2.27;;
11582;SDS011;34299;50.820;4.548;2023-05-18T03:11:31;9.77;;;2.27;;
11582;SDS011;34299;50.820;4.548;2023-05-18T03:13:58;3.47;;;1.77;;
11582;SDS011;34299;50.820;4.548;2023-05-18T03:16:25;3.37;;;1.97;;
11582;SDS011;34299;50.820;4.548;2023-05-18T03:18:53;3.30;;;2.10;;
11582;SDS011;34299;50.820;4.548;2023-05-18T03:21:22;3.73;;;2.63;;
11582;SDS011;34299;50.820;4.548;2023-05-18T03:23:50;4.57;;;2.60;;
11582;SDS011;34299;50.820;4.548;2023-05-18T03:26:17;4.37;;;3.10;;
11582;SDS011;34299;50.820;4.548;2023-05-18T03:28:45;5.63;;;3.30;;
11582;SDS011;34299;50.820;4.548;2023-05-18T03:31:12;9.50;;;3.20;;
11582;SDS011;34299;50.820;4.548;2023-05-18T03:33:40;7.57;;;3.63;;
11582;SDS011;34299;50.820;4.548;2023-05-18T03:36:07;6.70;;;3.30;;
11582;SDS011;34299;50.820;4.548;2023-05-18T03:38:34;6.67;;;3.87;;
11582;SDS011;34299;50.820;4.548;2023-05-18T03:41:02;7.50;;;3.20;;
11582;SDS011;34299;50.820;4.548;2023-05-18T03:43:29;6.20;;;3.50;;
11582;SDS011;34299;50.820;4.548;2023-05-18T03:45:57;6.40;;;3.50;;
11582;SDS011;34299;50.820;4.548;2023-05-18T03:48:25;6.07;;;3.57;;
11582;SDS011;34299;50.820;4.548;2023-05-18T03:50:53;10.33;;;4.07;;
11582;SDS011;34299;50.820;4.548;2023-05-18T03:53:20;7.33;;;3.40;;
11582;SDS011;34299;50.820;4.548;2023-05-18T03:55:47;6.73;;;3.60;;
11582;SDS011;34299;50.820;4.548;2023-05-18T03:58:15;5.03;;;3.83;;
11582;SDS011;34299;50.820;4.548;2023-05-18T04:00:44;3.77;;;2.90;;
11582;SDS011;34299;50.820;4.548;2023-05-18T04:03:13;7.47;;;3.90;;
11582;SDS011;34299;50.820;4.548;2023-05-18T04:05:40;7.33;;;3.43;;
11582;SDS011;34299;50.820;4.548;2023-05-18T04:08:07;5.20;;;3.50;;
11582;SDS011;34299;50.820;4.548;2023-05-18T04:10:38;6.17;;;3.63;;
11582;SDS011;34299;50.820;4.548;2023-05-18T04:13:05;8.33;;;3.80;;
11582;SDS011;34299;50.820;4.548;2023-05-18T04:15:32;4.33;;;3.53;;
11582;SDS011;34299;50.820;4.548;2023-05-18T04:18:00;6.83;;;3.70;;
11582;SDS011;34299;50.820;4.548;2023-05-18T04:20:29;7.17;;;4.10;;
11582;SDS011;34299;50.820;4.548;2023-05-18T04:22:56;6.67;;;3.70;;
11582;SDS011;34299;50.820;4.548;2023-05-18T04:25:24;5.83;;;4.33;;
11582;SDS011;34299;50.820;4.548;2023-05-18T04:27:52;5.37;;;3.33;;
11582;SDS011;34299;50.820;4.548;2023-05-18T04:30:19;6.73;;;3.97;;
11582;SDS011;34299;50.820;4.548;2023-05-18T04:32:47;8.67;;;3.77;;
11582;SDS011;34299;50.820;4.548;2023-05-18T04:35:15;5.33;;;3.60;;
11582;SDS011;34299;50.820;4.548;2023-05-18T04:37:43;7.00;;;3.13;;
11582;SDS011;34299;50.820;4.548;2023-05-18T04:40:11;6.50;;;3.63;;
11582;SDS011;34299;50.820;4.548;2023-05-18T04:42:41;6.23;;;3.60;;
11582;SDS011;34299;50.820;4.548;2023-05-18T04:45:10;4.50;;;3.43;;
11582;SDS011;34299;50.820;4.548;2023-05-18T04:47:40;5.13;;;3.43;;
11582;SDS011;34299;50.820;4.548;2023-05-18T04:50:11;7.60;;;3.77;;
11582;SDS011;34299;50.820;4.548;2023-05-18T04:52:39;5.60;;;4.07;;
11582;SDS011;34299;50.820;4.548;2023-05-18T04:55:14;8.07;;;4.10;;
11582;SDS011;34299;50.820;4.548;2023-05-18T04:57:44;9.57;;;4.37;;
11582;SDS011;34299;50.820;4.548;2023-05-18T05:00:12;5.93;;;4.37;;
11582;SDS011;34299;50.820;4.548;2023-05-18T05:02:39;7.73;;;3.93;;
11582;SDS011;34299;50.820;4.548;2023-05-18T05:05:06;8.30;;;4.23;;
11582;SDS011;34299;50.820;4.548;2023-05-18T05:07:34;8.17;;;4.20;;
11582;SDS011;34299;50.820;4.548;2023-05-18T05:10:01;9.17;;;3.97;;
11582;SDS011;34299;50.820;4.548;2023-05-18T05:12:30;3.70;;;2.70;;
11582;SDS011;34299;50.820;4.548;2023-05-18T05:14:57;4.43;;;2.70;;
11582;SDS011;34299;50.820;4.548;2023-05-18T05:17:24;5.07;;;3.20;;
11582;SDS011;34299;50.820;4.548;2023-05-18T05:19:51;6.60;;;3.70;;
11582;SDS011;34299;50.820;4.548;2023-05-18T05:22:18;5.63;;;3.17;;
11582;SDS011;34299;50.820;4.548;2023-05-18T05:24:46;6.87;;;3.77;;
11582;SDS011;34299;50.820;4.548;2023-05-18T05:27:13;8.93;;;3.70;;
11582;SDS011;34299;50.820;4.548;2023-05-18T05:29:43;12.10;;;3.93;;
11582;SDS011;34299;50.820;4.548;2023-05-18T05:32:10;8.90;;;4.30;;
11582;SDS011;34299;50.820;4.548;2023-05-18T05:34:37;7.10;;;3.50;;
11582;SDS011;34299;50.820;4.548;2023-05-18T05:37:04;9.37;;;3.57;;
11582;SDS011;34299;50.820;4.548;2023-05-18T05:39:31;6.97;;;3.40;;
11582;SDS011;34299;50.820;4.548;2023-05-18T05:41:59;6.97;;;3.97;;
11582;SDS011;34299;50.820;4.548;2023-05-18T05:44:26;6.93;;;3.27;;
11582;SDS011;34299;50.820;4.548;2023-05-18T05:46:54;7.43;;;3.87;;
11582;SDS011;34299;50.820;4.548;2023-05-18T05:49:22;8.00;;;3.40;;
11582;SDS011;34299;50.820;4.548;2023-05-18T05:51:49;8.53;;;3.60;;
11582;SDS011;34299;50.820;4.548;2023-05-18T05:54:16;7.67;;;3.83;;
11582;SDS011;34299;50.820;4.548;2023-05-18T05:56:43;8.03;;;3.70;;
11582;SDS011;34299;50.820;4.548;2023-05-18T05:59:10;5.57;;;3.47;;
11582;SDS011;34299;50.820;4.548;2023-05-18T06:01:38;8.50;;;4.80;;
11582;SDS011;34299;50.820;4.548;2023-05-18T06:04:06;7.30;;;4.60;;
11582;SDS011;34299;50.820;4.548;2023-05-18T06:06:36;10.90;;;4.10;;
11582;SDS011;34299;50.820;4.548;2023-05-18T06:09:04;8.50;;;3.70;;
11582;SDS011;34299;50.820;4.548;2023-05-18T06:11:31;8.90;;;3.57;;
11582;SDS011;34299;50.820;4.548;2023-05-18T06:13:58;6.00;;;2.93;;
11582;SDS011;34299;50.820;4.548;2023-05-18T06:16:25;8.07;;;3.73;;
11582;SDS011;34299;50.820;4.548;2023-05-18T06:18:53;11.17;;;3.77;;
11582;SDS011;34299;50.820;4.548;2023-05-18T06:21:21;7.00;;;3.93;;
11582;SDS011;34299;50.820;4.548;2023-05-18T06:23:48;6.07;;;3.53;;
11582;SDS011;34299;50.820;4.548;2023-05-18T06:26:16;9.57;;;4.27;;
11582;SDS011;34299;50.820;4.548;2023-05-18T06:28:43;9.17;;;3.67;;
11582;SDS011;34299;50.820;4.548;2023-05-18T06:31:10;7.03;;;4.00;;
11582;SDS011;34299;50.820;4.548;2023-05-18T06:33:38;11.53;;;3.97;;
11582;SDS011;34299;50.820;4.548;2023-05-18T06:36:05;8.93;;;4.07;;
11582;SDS011;34299;50.820;4.548;2023-05-18T06:38:34;7.17;;;3.87;;
11582;SDS011;34299;50.820;4.548;2023-05-18T06:41:01;5.03;;;3.67;;
11582;SDS011;34299;50.820;4.548;2023-05-18T06:43:28;9.83;;;4.30;;
11582;SDS011;34299;50.820;4.548;2023-05-18T06:45:55;8.43;;;3.77;;
11582;SDS011;34299;50.820;4.548;2023-05-18T06:48:24;8.83;;;3.20;;
11582;SDS011;34299;50.820;4.548;2023-05-18T06:50:52;9.67;;;4.10;;
11582;SDS011;34299;50.820;4.548;2023-05-18T06:53:19;10.73;;;4.57;;
11582;SDS011;34299;50.820;4.548;2023-05-18T06:55:48;8.27;;;4.47;;
11582;SDS011;34299;50.820;4.548;2023-05-18T06:58:15;9.53;;;4.10;;
11582;SDS011;34299;50.820;4.548;2023-05-18T07:00:43;9.07;;;3.57;;
11582;SDS011;34299;50.820;4.548;2023-05-18T07:03:10;8.03;;;3.90;;
11582;SDS011;34299;50.820;4.548;2023-05-18T07:05:37;7.80;;;3.90;;
11582;SDS011;34299;50.820;4.548;2023-05-18T07:08:04;7.17;;;3.93;;
11582;SDS011;34299;50.820;4.548;2023-05-18T07:10:31;5.50;;;3.60;;
11582;SDS011;34299;50.820;4.548;2023-05-18T07:13:00;6.40;;;4.00;;
11582;SDS011;34299;50.820;4.548;2023-05-18T07:15:28;9.07;;;4.10;;
11582;SDS011;34299;50.820;4.548;2023-05-18T07:17:55;6.97;;;3.93;;
11582;SDS011;34299;50.820;4.548;2023-05-18T07:20:22;7.57;;;4.13;;
11582;SDS011;34299;50.820;4.548;2023-05-18T07:22:50;8.23;;;4.10;;
11582;SDS011;34299;50.820;4.548;2023-05-18T07:25:19;7.83;;;4.17;;
11582;SDS011;34299;50.820;4.548;2023-05-18T07:27:46;9.77;;;3.90;;
11582;SDS011;34299;50.820;4.548;2023-05-18T07:30:14;6.43;;;3.77;;
11582;SDS011;34299;50.820;4.548;2023-05-18T07:32:42;8.13;;;4.60;;
11582;SDS011;34299;50.820;4.548;2023-05-18T07:35:09;6.50;;;3.70;;
11582;SDS011;34299;50.820;4.548;2023-05-18T07:37:37;6.97;;;4.37;;
11582;SDS011;34299;50.820;4.548;2023-05-18T07:40:04;12.53;;;3.70;;
11582;SDS011;34299;50.820;4.548;2023-05-18T07:42:33;8.07;;;4.27;;
11582;SDS011;34299;50.820;4.548;2023-05-18T07:45:01;8.47;;;3.47;;
11582;SDS011;34299;50.820;4.548;2023-05-18T07:47:29;6.10;;;4.10;;
11582;SDS011;34299;50.820;4.548;2023-05-18T07:49:56;6.40;;;3.70;;
11582;SDS011;34299;50.820;4.548;2023-05-18T07:52:24;4.73;;;3.40;;
11582;SDS011;34299;50.820;4.548;2023-05-18T07:54:51;9.43;;;3.67;;
11582;SDS011;34299;50.820;4.548;2023-05-18T07:57:18;7.10;;;3.90;;
11582;SDS011;34299;50.820;4.548;2023-05-18T07:59:46;6.07;;;3.40;;
11582;SDS011;34299;50.820;4.548;2023-05-18T08:02:13;5.07;;;3.93;;
11582;SDS011;34299;50.820;4.548;2023-05-18T08:04:42;8.37;;;4.00;;
11582;SDS011;34299;50.820;4.548;2023-05-18T08:07:10;10.50;;;3.77;;
11582;SDS011;34299;50.820;4.548;2023-05-18T08:09:37;8.57;;;3.67;;
11582;SDS011;34299;50.820;4.548;2023-05-18T08:12:04;9.00;;;3.73;;
11582;SDS011;34299;50.820;4.548;2023-05-18T08:14:32;5.90;;;4.00;;
11582;SDS011;34299;50.820;4.548;2023-05-18T08:16:59;7.53;;;3.77;;
11582;SDS011;34299;50.820;4.548;2023-05-18T08:19:26;5.40;;;3.50;;
11582;SDS011;34299;50.820;4.548;2023-05-18T08:21:55;11.73;;;4.40;;
11582;SDS011;34299;50.820;4.548;2023-05-18T08:24:22;6.57;;;3.77;;
11582;SDS011;34299;50.820;4.548;2023-05-18T08:26:49;8.70;;;3.90;;
11582;SDS011;34299;50.820;4.548;2023-05-18T08:29:16;12.13;;;4.33;;
11582;SDS011;34299;50.820;4.548;2023-05-18T08:31:44;5.37;;;3.83;;
11582;SDS011;34299;50.820;4.548;2023-05-18T08:34:11;10.77;;;4.30;;
11582;SDS011;34299;50.820;4.548;2023-05-18T08:36:38;7.10;;;3.90;;
11582;SDS011;34299;50.820;4.548;2023-05-18T08:39:10;13.93;;;4.07;;
11582;SDS011;34299;50.820;4.548;2023-05-18T08:41:37;9.17;;;3.87;;
11582;SDS011;34299;50.820;4.548;2023-05-18T08:44:08;7.40;;;4.07;;
11582;SDS011;34299;50.820;4.548;2023-05-18T08:46:38;5.40;;;3.43;;
11582;SDS011;34299;50.820;4.548;2023-05-18T08:49:06;6.20;;;3.97;;
11582;SDS011;34299;50.820;4.548;2023-05-18T08:51:37;8.63;;;4.37;;
11582;SDS011;34299;50.820;4.548;2023-05-18T08:54:06;11.23;;;4.60;;
11582;SDS011;34299;50.820;4.548;2023-05-18T08:56:35;12.03;;;6.30;;
11582;SDS011;34299;50.820;4.548;2023-05-18T08:59:04;10.57;;;4.60;;
11582;SDS011;34299;50.820;4.548;2023-05-18T09:01:33;6.53;;;4.37;;
11582;SDS011;34299;50.820;4.548;2023-05-18T09:04:01;10.87;;;4.13;;
11582;SDS011;34299;50.820;4.548;2023-05-18T09:06:28;7.60;;;4.13;;
11582;SDS011;34299;50.820;4.548;2023-05-18T09:08:56;10.57;;;4.00;;
11582;SDS011;34299;50.820;4.548;2023-05-18T09:11:24;10.00;;;4.97;;
11582;SDS011;34299;50.820;4.548;2023-05-18T09:13:52;9.13;;;4.13;;
11582;SDS011;34299;50.820;4.548;2023-05-18T09:16:20;9.80;;;4.30;;
11582;SDS011;34299;50.820;4.548;2023-05-18T09:18:47;10.37;;;4.47;;
11582;SDS011;34299;50.820;4.548;2023-05-18T09:21:14;10.00;;;4.23;;
11582;SDS011;34299;50.820;4.548;2023-05-18T09:23:42;5.23;;;3.53;;
11582;SDS011;34299;50.820;4.548;2023-05-18T09:26:10;9.60;;;4.00;;
11582;SDS011;34299;50.820;4.548;2023-05-18T09:28:38;9.47;;;3.63;;
11582;SDS011;34299;50.820;4.548;2023-05-18T09:31:07;5.83;;;3.70;;
11582;SDS011;34299;50.820;4.548;2023-05-18T09:33:37;6.03;;;3.93;;
11582;SDS011;34299;50.820;4.548;2023-05-18T09:36:04;9.40;;;3.63;;
11582;SDS011;34299;50.820;4.548;2023-05-18T09:38:34;6.87;;;3.47;;
11582;SDS011;34299;50.820;4.548;2023-05-18T09:41:02;7.47;;;3.80;;
11582;SDS011;34299;50.820;4.548;2023-05-18T09:43:29;5.33;;;3.63;;
11582;SDS011;34299;50.820;4.548;2023-05-18T09:45:57;7.77;;;3.90;;
11582;SDS011;34299;50.820;4.548;2023-05-18T09:48:32;6.87;;;3.83;;
11582;SDS011;34299;50.820;4.548;2023-05-18T09:51:00;4.57;;;3.47;;
11582;SDS011;34299;50.820;4.548;2023-05-18T09:53:28;4.67;;;3.83;;
11582;SDS011;34299;50.820;4.548;2023-05-18T09:55:55;9.13;;;4.00;;
11582;SDS011;34299;50.820;4.548;2023-05-18T09:58:30;8.83;;;3.90;;
11582;SDS011;34299;50.820;4.548;2023-05-18T10:00:59;6.80;;;3.83;;
11582;SDS011;34299;50.820;4.548;2023-05-18T10:03:30;7.37;;;3.70;;
11582;SDS011;34299;50.820;4.548;2023-05-18T10:06:03;9.67;;;3.93;;
11582;SDS011;34299;50.820;4.548;2023-05-18T10:08:31;7.30;;;3.93;;
11582;SDS011;34299;50.820;4.548;2023-05-18T10:10:58;7.47;;;3.77;;
11582;SDS011;34299;50.820;4.548;2023-05-18T10:13:26;7.13;;;4.07;;
11582;SDS011;34299;50.820;4.548;2023-05-18T10:15:56;5.97;;;3.00;;
11582;SDS011;34299;50.820;4.548;2023-05-18T10:18:24;4.57;;;3.43;;
11582;SDS011;34299;50.820;4.548;2023-05-18T10:20:52;5.90;;;2.97;;
11582;SDS011;34299;50.820;4.548;2023-05-18T10:23:21;7.17;;;2.80;;
11582;SDS011;34299;50.820;4.548;2023-05-18T10:25:49;4.67;;;3.00;;
11582;SDS011;34299;50.820;4.548;2023-05-18T10:28:17;4.93;;;2.93;;
11582;SDS011;34299;50.820;4.548;2023-05-18T10:30:48;5.80;;;2.90;;
11582;SDS011;34299;50.820;4.548;2023-05-18T10:33:17;6.87;;;3.00;;
11582;SDS011;34299;50.820;4.548;2023-05-18T10:35:45;5.23;;;3.10;;
11582;SDS011;34299;50.820;4.548;2023-05-18T10:38:14;7.40;;;3.23;;
11582;SDS011;34299;50.820;4.548;2023-05-18T10:40:44;5.00;;;2.30;;
11582;SDS011;34299;50.820;4.548;2023-05-18T10:43:12;5.97;;;2.90;;
11582;SDS011;34299;50.820;4.548;2023-05-18T10:45:41;3.47;;;2.63;;
11582;SDS011;34299;50.820;4.548;2023-05-18T10:48:12;4.87;;;3.27;;
11582;SDS011;34299;50.820;4.548;2023-05-18T10:50:40;3.37;;;2.47;;
11582;SDS011;34299;50.820;4.548;2023-05-18T10:53:08;6.47;;;3.10;;
11582;SDS011;34299;50.820;4.548;2023-05-18T10:55:35;8.43;;;3.13;;
11582;SDS011;34299;50.820;4.548;2023-05-18T10:58:06;5.37;;;2.77;;
11582;SDS011;34299;50.820;4.548;2023-05-18T11:00:35;4.00;;;2.53;;
11582;SDS011;34299;50.820;4.548;2023-05-18T11:03:03;6.67;;;3.20;;
11582;SDS011;34299;50.820;4.548;2023-05-18T11:05:33;4.63;;;2.50;;
11582;SDS011;34299;50.820;4.548;2023-05-18T11:08:01;3.90;;;3.00;;
11582;SDS011;34299;50.820;4.548;2023-05-18T11:10:33;4.43;;;2.50;;
11582;SDS011;34299;50.820;4.548;2023-05-18T11:13:00;8.90;;;2.87;;
11582;SDS011;34299;50.820;4.548;2023-05-18T11:18:15;7.23;;;2.87;;
11582;SDS011;34299;50.820;4.548;2023-05-18T11:20:44;6.77;;;2.83;;
11582;SDS011;34299;50.820;4.548;2023-05-18T11:23:11;5.83;;;2.73;;
11582;SDS011;34299;50.820;4.548;2023-05-18T11:25:39;7.73;;;3.07;;
11582;SDS011;34299;50.820;4.548;2023-05-18T11:28:09;6.83;;;2.67;;
11582;SDS011;34299;50.820;4.548;2023-05-18T11:30:44;3.93;;;2.40;;
11582;SDS011;34299;50.820;4.548;2023-05-18T11:33:12;5.17;;;2.73;;
11582;SDS011;34299;50.820;4.548;2023-05-18T11:35:57;5.87;;;2.70;;
11582;SDS011;34299;50.820;4.548;2023-05-18T11:41:08;4.53;;;2.57;;
11582;SDS011;34299;50.820;4.548;2023-05-18T11:43:56;9.13;;;3.03;;
11582;SDS011;34299;50.820;4.548;2023-05-18T11:46:24;4.10;;;2.63;;
11582;SDS011;34299;50.820;4.548;2023-05-18T11:48:52;6.43;;;3.20;;
11582;SDS011;34299;50.820;4.548;2023-05-18T11:51:20;4.73;;;2.50;;
11582;SDS011;34299;50.820;4.548;2023-05-18T11:53:50;5.03;;;3.50;;
11582;SDS011;34299;50.820;4.548;2023-05-18T11:56:17;6.33;;;3.23;;
11582;SDS011;34299;50.820;4.548;2023-05-18T11:58:45;7.10;;;2.70;;
11582;SDS011;34299;50.820;4.548;2023-05-18T12:01:13;5.37;;;2.90;;
11582;SDS011;34299;50.820;4.548;2023-05-18T12:03:41;5.97;;;3.73;;
11582;SDS011;34299;50.820;4.548;2023-05-18T12:06:08;5.40;;;2.67;;
11582;SDS011;34299;50.820;4.548;2023-05-18T12:08:37;7.83;;;2.87;;
11582;SDS011;34299;50.820;4.548;2023-05-18T12:11:08;7.30;;;2.93;;
11582;SDS011;34299;50.820;4.548;2023-05-18T12:13:35;9.23;;;3.03;;
11582;SDS011;34299;50.820;4.548;2023-05-18T12:16:02;6.97;;;3.37;;
11582;SDS011;34299;50.820;4.548;2023-05-18T12:18:31;8.03;;;3.40;;
11582;SDS011;34299;50.820;4.548;2023-05-18T12:21:02;7.33;;;3.07;;
11582;SDS011;34299;50.820;4.548;2023-05-18T12:23:37;6.93;;;3.07;;
11582;SDS011;34299;50.820;4.548;2023-05-18T12:26:05;8.77;;;3.73;;
11582;SDS011;34299;50.820;4.548;2023-05-18T12:28:32;7.63;;;3.53;;
11582;SDS011;34299;50.820;4.548;2023-05-18T12:31:00;7.40;;;3.37;;
11582;SDS011;34299;50.820;4.548;2023-05-18T12:33:32;8.57;;;3.63;;
11582;SDS011;34299;50.820;4.548;2023-05-18T12:35:59;9.27;;;3.40;;
11582;SDS011;34299;50.820;4.548;2023-05-18T12:38:27;8.60;;;4.10;;
11582;SDS011;34299;50.820;4.548;2023-05-18T12:40:55;6.60;;;2.97;;
11582;SDS011;34299;50.820;4.548;2023-05-18T12:43:23;8.33;;;3.60;;
11582;SDS011;34299;50.820;4.548;2023-05-18T12:45:51;5.07;;;3.37;;
11582;SDS011;34299;50.820;4.548;2023-05-18T12:48:19;6.23;;;3.40;;
11582;SDS011;34299;50.820;4.548;2023-05-18T12:50:50;6.10;;;3.10;;
11582;SDS011;34299;50.820;4.548;2023-05-18T12:53:19;6.37;;;3.23;;
11582;SDS011;34299;50.820;4.548;2023-05-18T12:55:55;5.03;;;3.90;;
11582;SDS011;34299;50.820;4.548;2023-05-18T12:58:23;6.70;;;3.13;;
11582;SDS011;34299;50.820;4.548;2023-05-18T13:00:50;9.57;;;3.70;;
11582;SDS011;34299;50.820;4.548;2023-05-18T13:03:18;6.57;;;3.60;;
11582;SDS011;34299;50.820;4.548;2023-05-18T13:06:00;6.33;;;3.53;;
11582;SDS011;34299;50.820;4.548;2023-05-18T13:08:27;5.00;;;3.40;;
11582;SDS011;34299;50.820;4.548;2023-05-18T13:10:59;6.27;;;3.30;;
11582;SDS011;34299;50.820;4.548;2023-05-18T13:13:26;6.30;;;3.67;;
11582;SDS011;34299;50.820;4.548;2023-05-18T13:15:53;5.50;;;3.33;;
11582;SDS011;34299;50.820;4.548;2023-05-18T13:18:23;7.07;;;3.50;;
11582;SDS011;34299;50.820;4.548;2023-05-18T13:20:51;5.73;;;3.23;;
11582;SDS011;34299;50.820;4.548;2023-05-18T13:23:19;6.17;;;3.37;;
11582;SDS011;34299;50.820;4.548;2023-05-18T13:25:46;11.87;;;3.43;;
11582;SDS011;34299;50.820;4.548;2023-05-18T13:28:16;4.00;;;3.30;;
11582;SDS011;34299;50.820;4.548;2023-05-18T13:30:44;6.47;;;3.47;;
11582;SDS011;34299;50.820;4.548;2023-05-18T13:33:12;6.00;;;3.73;;
11582;SDS011;34299;50.820;4.548;2023-05-18T13:35:41;5.13;;;2.87;;
11582;SDS011;34299;50.820;4.548;2023-05-18T13:38:08;7.20;;;3.27;;
11582;SDS011;34299;50.820;4.548;2023-05-18T13:40:36;5.53;;;3.27;;
11582;SDS011;34299;50.820;4.548;2023-05-18T13:43:03;5.17;;;2.87;;
11582;SDS011;34299;50.820;4.548;2023-05-18T13:45:33;5.83;;;3.27;;
11582;SDS011;34299;50.820;4.548;2023-05-18T13:48:00;6.57;;;3.73;;
11582;SDS011;34299;50.820;4.548;2023-05-18T13:50:31;3.53;;;2.97;;
11582;SDS011;34299;50.820;4.548;2023-05-18T13:52:58;5.53;;;3.47;;
11582;SDS011;34299;50.820;4.548;2023-05-18T13:55:26;8.43;;;3.83;;
11582;SDS011;34299;50.820;4.548;2023-05-18T13:57:53;4.10;;;3.23;;
11582;SDS011;34299;50.820;4.548;2023-05-18T14:00:21;6.77;;;3.13;;
11582;SDS011;34299;50.820;4.548;2023-05-18T14:02:49;4.83;;;3.07;;
11582;SDS011;34299;50.820;4.548;2023-05-18T14:05:17;7.33;;;3.47;;
11582;SDS011;34299;50.820;4.548;2023-05-18T14:07:44;11.27;;;3.50;;
11582;SDS011;34299;50.820;4.548;2023-05-18T14:10:11;4.83;;;2.90;;
11582;SDS011;34299;50.820;4.548;2023-05-18T14:12:38;6.10;;;3.23;;
11582;SDS011;34299;50.820;4.548;2023-05-18T14:15:07;5.73;;;2.60;;
11582;SDS011;34299;50.820;4.548;2023-05-18T14:17:35;6.07;;;3.10;;
11582;SDS011;34299;50.820;4.548;2023-05-18T14:20:04;3.60;;;2.67;;
11582;SDS011;34299;50.820;4.548;2023-05-18T14:22:32;6.90;;;2.70;;
11582;SDS011;34299;50.820;4.548;2023-05-18T14:24:59;6.77;;;2.53;;
11582;SDS011;34299;50.820;4.548;2023-05-18T14:27:27;5.43;;;2.83;;
11582;SDS011;34299;50.820;4.548;2023-05-18T14:29:54;3.70;;;2.20;;
11582;SDS011;34299;50.820;4.548;2023-05-18T14:32:22;6.93;;;3.00;;
11582;SDS011;34299;50.820;4.548;2023-05-18T14:34:49;6.50;;;3.00;;
11582;SDS011;34299;50.820;4.548;2023-05-18T14:37:20;4.53;;;2.70;;
11582;SDS011;34299;50.820;4.548;2023-05-18T14:39:47;7.30;;;2.73;;
11582;SDS011;34299;50.820;4.548;2023-05-18T14:42:15;6.07;;;3.03;;
11582;SDS011;34299;50.820;4.548;2023-05-18T14:44:42;4.63;;;2.27;;
11582;SDS011;34299;50.820;4.548;2023-05-18T14:47:09;5.70;;;2.73;;
11582;SDS011;34299;50.820;4.548;2023-05-18T14:49:36;4.77;;;2.50;;
11582;SDS011;34299;50.820;4.548;2023-05-18T14:52:04;6.73;;;2.67;;
11582;SDS011;34299;50.820;4.548;2023-05-18T14:54:32;8.57;;;2.97;;
11582;SDS011;34299;50.820;4.548;2023-05-18T14:57:00;3.57;;;2.37;;
11582;SDS011;34299;50.820;4.548;2023-05-18T14:59:27;4.40;;;2.40;;